createdAt,value
2023-04-15T00:01:19.882Z,2.80
2023-04-15T00:03:50.846Z,3.50
2023-04-15T00:06:19.726Z,2.60
2023-04-15T00:08:50.905Z,3.70
2023-04-15T00:11:20.101Z,5.10
2023-04-15T00:13:48.846Z,2.90
2023-04-15T00:16:17.153Z,3.80
2023-04-15T00:18:46.057Z,3.20
2023-04-15T00:21:15.214Z,1.70
2023-04-15T00:23:44.306Z,2.40
2023-04-15T00:26:12.865Z,2.00
2023-04-15T00:28:42.690Z,1.70
2023-04-15T00:31:11.132Z,4.60
2023-04-15T00:33:40.306Z,2.30
2023-04-15T00:36:09.020Z,4.20
2023-04-15T00:38:39.484Z,3.00
2023-04-15T00:41:09.303Z,3.40
2023-04-15T00:43:38.405Z,3.60
2023-04-15T00:46:07.982Z,3.20
2023-04-15T00:48:37.437Z,3.40
2023-04-15T00:51:05.704Z,2.40
2023-04-15T00:53:34.300Z,4.50
2023-04-15T00:56:02.829Z,5.70
2023-04-15T00:58:31.436Z,8.50
2023-04-15T01:01:00.276Z,5.70
2023-04-15T01:03:30.370Z,14.90
2023-04-15T01:06:01.564Z,4.40
2023-04-15T01:08:31.950Z,5.50
2023-04-15T01:11:03.785Z,3.00
2023-04-15T01:13:34.781Z,8.10
2023-04-15T01:16:03.328Z,4.50
2023-04-15T01:18:33.085Z,4.70
2023-04-15T01:21:03.903Z,6.80
2023-04-15T01:23:33.137Z,2.10
2023-04-15T01:26:02.712Z,4.00
2023-04-15T01:28:32.444Z,2.00
2023-04-15T01:31:08.378Z,5.50
2023-04-15T01:33:41.242Z,2.20
2023-04-15T01:36:11.090Z,2.90
2023-04-15T01:38:39.667Z,3.50
2023-04-15T01:41:08.327Z,3.30
2023-04-15T01:43:37.473Z,8.40
2023-04-15T01:46:06.434Z,3.90
2023-04-15T01:48:36.080Z,8.70
2023-04-15T01:51:05.965Z,2.40
2023-04-15T01:53:34.467Z,2.50
2023-04-15T01:56:04.441Z,4.40
2023-04-15T01:58:32.690Z,4.00
2023-04-15T02:01:04.578Z,4.10
2023-04-15T02:03:33.836Z,5.50
2023-04-15T02:06:02.752Z,3.60
2023-04-15T02:08:30.945Z,4.80
2023-04-15T02:11:01.314Z,2.40
2023-04-15T02:13:30.316Z,4.60
2023-04-15T02:15:59.865Z,6.60
2023-04-15T02:18:28.795Z,5.90
2023-04-15T02:20:58.888Z,4.80
2023-04-15T02:23:27.448Z,10.00
2023-04-15T02:25:55.853Z,6.20
2023-04-15T02:28:24.179Z,8.80
2023-04-15T02:30:53.550Z,12.10
2023-04-15T02:33:22.213Z,9.20
2023-04-15T02:35:51.061Z,8.20
2023-04-15T02:38:19.304Z,5.80
2023-04-15T02:40:50.490Z,5.80
2023-04-15T02:43:19.216Z,3.80
2023-04-15T02:45:48.622Z,3.10
2023-04-15T02:48:21.741Z,14.80
2023-04-15T02:50:49.971Z,7.40
2023-04-15T02:53:20.143Z,6.40
2023-04-15T02:55:48.376Z,5.80
2023-04-15T02:58:16.637Z,4.50
2023-04-15T03:00:44.887Z,8.90
2023-04-15T03:03:15.486Z,5.30
2023-04-15T03:05:44.977Z,5.90
2023-04-15T03:08:15.158Z,6.80
2023-04-15T03:10:44.024Z,9.30
2023-04-15T03:13:12.261Z,5.80
2023-04-15T03:15:42.255Z,13.20
2023-04-15T03:18:10.996Z,8.90
2023-04-15T03:20:39.834Z,12.80
2023-04-15T03:23:08.464Z,11.00
2023-04-15T03:25:37.650Z,12.20
2023-04-15T03:28:06.900Z,17.60
2023-04-15T03:30:35.200Z,15.70
2023-04-15T03:33:03.413Z,8.60
2023-04-15T03:35:31.685Z,14.20
2023-04-15T03:37:59.878Z,12.40
2023-04-15T03:40:29.757Z,6.80
2023-04-15T03:42:57.987Z,4.60
2023-04-15T03:45:26.941Z,19.40
2023-04-15T03:47:55.155Z,9.20
2023-04-15T03:50:23.450Z,10.30
2023-04-15T03:52:52.414Z,9.30
2023-04-15T03:55:20.907Z,15.90
2023-04-15T03:57:49.115Z,10.70
2023-04-15T04:00:17.321Z,8.40
2023-04-15T04:02:46.358Z,14.60
2023-04-15T04:05:15.390Z,12.10
2023-04-15T04:07:43.785Z,8.50
2023-04-15T04:10:12.357Z,13.60
2023-04-15T04:12:40.737Z,7.80
2023-04-15T04:15:09.475Z,10.40
2023-04-15T04:17:38.259Z,13.30
2023-04-15T04:20:07.703Z,10.80
2023-04-15T04:22:42.904Z,14.70
2023-04-15T04:25:11.359Z,19.50
2023-04-15T04:27:42.584Z,17.00
2023-04-15T04:30:12.165Z,18.90
2023-04-15T04:32:40.367Z,15.10
2023-04-15T04:35:10.502Z,13.70
2023-04-15T04:37:38.803Z,16.10
2023-04-15T04:40:08.338Z,10.80
2023-04-15T04:42:38.637Z,10.70
2023-04-15T04:45:09.105Z,9.20
2023-04-15T04:47:37.401Z,10.50
2023-04-15T04:50:06.913Z,15.00
2023-04-15T04:52:35.105Z,10.50
2023-04-15T04:55:03.822Z,11.80
2023-04-15T04:57:33.496Z,12.40
2023-04-15T05:00:05.192Z,13.20
2023-04-15T05:02:33.880Z,10.30
2023-04-15T05:05:02.937Z,11.20
2023-04-15T05:07:31.336Z,18.30
2023-04-15T05:09:59.622Z,10.90
2023-04-15T05:12:27.895Z,16.00
2023-04-15T05:14:56.124Z,14.60
2023-04-15T05:17:24.545Z,17.30
2023-04-15T05:19:54.199Z,8.40
2023-04-15T05:22:22.515Z,11.20
2023-04-15T05:24:50.981Z,12.60
2023-04-15T05:27:19.537Z,13.50
2023-04-15T05:29:47.784Z,12.50
2023-04-15T05:32:16.220Z,17.50
2023-04-15T05:34:44.590Z,13.10
2023-04-15T05:37:12.925Z,12.70
2023-04-15T05:39:41.161Z,14.10
2023-04-15T05:42:09.401Z,17.30
2023-04-15T05:44:37.655Z,13.90
2023-04-15T05:47:07.475Z,16.20
2023-04-15T05:49:36.073Z,13.30
2023-04-15T05:52:04.644Z,17.00
2023-04-15T05:54:32.939Z,12.90
2023-04-15T05:57:01.929Z,18.30
2023-04-15T05:59:30.206Z,16.20
2023-04-15T06:01:58.604Z,20.00
2023-04-15T06:04:26.994Z,18.20
2023-04-15T06:06:55.185Z,18.70
2023-04-15T06:09:25.819Z,21.10
2023-04-15T06:11:54.360Z,19.00
2023-04-15T06:14:22.588Z,17.30
2023-04-15T06:16:50.993Z,16.50
2023-04-15T06:19:19.617Z,15.40
2023-04-15T06:21:50.258Z,23.90
2023-04-15T06:24:18.477Z,27.50
2023-04-15T06:26:47.931Z,36.80
2023-04-15T06:29:16.581Z,20.90
2023-04-15T06:31:49.953Z,19.20
2023-04-15T06:34:18.227Z,31.50
2023-04-15T06:36:46.903Z,27.90
2023-04-15T06:39:15.275Z,20.00
2023-04-15T06:41:43.643Z,23.60
2023-04-15T06:44:12.002Z,19.20
2023-04-15T06:46:40.229Z,18.70
2023-04-15T06:49:09.643Z,21.40
2023-04-15T06:51:38.081Z,18.50
2023-04-15T06:54:07.870Z,13.90
2023-04-15T06:56:36.568Z,19.00
2023-04-15T06:59:04.818Z,32.60
2023-04-15T07:01:33.083Z,19.40
2023-04-15T07:04:01.491Z,23.30
2023-04-15T07:06:30.304Z,16.00
2023-04-15T07:08:58.805Z,12.90
2023-04-15T07:11:27.165Z,20.30
2023-04-15T07:13:55.608Z,20.80
2023-04-15T07:16:24.001Z,34.00
2023-04-15T07:18:52.568Z,31.50
2023-04-15T07:21:20.921Z,15.40
2023-04-15T07:23:49.133Z,18.00
2023-04-15T07:26:18.989Z,19.90
2023-04-15T07:28:47.660Z,24.90
2023-04-15T07:31:17.400Z,17.60
2023-04-15T07:33:46.477Z,16.80
2023-04-15T07:36:15.805Z,24.50
2023-04-15T07:38:44.319Z,21.40
2023-04-15T07:41:13.626Z,23.00
2023-04-15T07:43:42.078Z,18.50
2023-04-15T07:46:10.513Z,17.00
2023-04-15T07:48:38.885Z,21.30
2023-04-15T07:51:07.174Z,15.00
2023-04-15T07:53:36.494Z,21.20
2023-04-15T07:56:08.236Z,15.90
2023-04-15T07:58:37.371Z,21.20
2023-04-15T08:01:07.035Z,22.90
2023-04-15T08:03:35.668Z,15.10
2023-04-15T08:06:04.235Z,23.00
2023-04-15T08:08:33.045Z,30.50
2023-04-15T08:11:01.358Z,31.30
2023-04-15T08:13:29.653Z,36.40
2023-04-15T08:16:20.909Z,26.90
2023-04-15T08:18:51.806Z,21.90
2023-04-15T08:21:20.645Z,22.20
2023-04-15T08:23:50.913Z,27.10
2023-04-15T08:26:22.332Z,22.70
2023-04-15T08:28:51.730Z,21.40
2023-04-15T08:31:20.181Z,18.20
2023-04-15T08:33:48.484Z,26.60
2023-04-15T08:36:20.863Z,30.70
2023-04-15T08:38:49.517Z,34.60
2023-04-15T08:41:25.450Z,20.70
2023-04-15T08:44:04.426Z,34.30
2023-04-15T08:46:36.741Z,17.50
2023-04-15T08:49:05.873Z,20.20
2023-04-15T08:51:34.355Z,17.20
2023-04-15T08:54:03.937Z,18.80
2023-04-15T08:56:35.705Z,23.50
2023-04-15T08:59:07.712Z,19.50
2023-04-15T09:01:38.421Z,25.00
2023-04-15T09:04:10.061Z,15.90
2023-04-15T09:06:40.626Z,16.50
2023-04-15T09:09:08.959Z,22.50
2023-04-15T09:11:40.540Z,23.20
2023-04-15T09:14:11.683Z,24.00
2023-04-15T09:17:06.868Z,24.30
2023-04-15T09:19:35.429Z,22.30
2023-04-15T09:22:04.373Z,20.10
2023-04-15T09:24:42.829Z,35.10
2023-04-15T09:27:11.576Z,24.00
2023-04-15T09:29:42.930Z,24.80
2023-04-15T09:32:16.142Z,22.50
2023-04-15T09:34:46.221Z,21.40
2023-04-15T09:37:31.697Z,18.80
2023-04-15T09:40:00.779Z,29.90
2023-04-15T09:42:29.144Z,34.40
2023-04-15T09:45:12.174Z,21.80
2023-04-15T09:47:40.676Z,27.50
2023-04-15T09:50:09.470Z,26.10
2023-04-15T09:52:47.937Z,24.10
2023-04-15T09:55:18.853Z,22.50
2023-04-15T09:57:47.594Z,23.80
2023-04-15T10:00:16.426Z,22.70
2023-04-15T10:02:47.996Z,20.20
2023-04-15T10:05:19.255Z,28.00
2023-04-15T10:07:48.517Z,24.80
2023-04-15T10:10:17.845Z,20.00
2023-04-15T10:12:48.021Z,22.00
2023-04-15T10:15:17.969Z,25.20
2023-04-15T10:17:51.337Z,20.20
2023-04-15T10:20:23.473Z,29.70
2023-04-15T10:22:53.195Z,21.20
2023-04-15T10:25:22.674Z,21.30
2023-04-15T10:27:53.089Z,24.60
2023-04-15T10:30:22.472Z,23.90
2023-04-15T10:32:51.535Z,35.90
2023-04-15T10:35:22.528Z,25.00
2023-04-15T10:37:50.956Z,24.80
2023-04-15T10:40:31.460Z,22.90
2023-04-15T10:43:01.735Z,24.20
2023-04-15T10:45:38.004Z,21.70
2023-04-15T10:48:09.449Z,29.10
2023-04-15T10:50:38.075Z,15.10
2023-04-15T10:53:10.931Z,25.90
2023-04-15T10:55:39.487Z,17.00
2023-04-15T10:58:10.594Z,25.00
2023-04-15T11:00:40.356Z,18.50
2023-04-15T11:03:11.194Z,19.70
2023-04-15T11:05:42.691Z,25.50
2023-04-15T11:08:12.114Z,19.80
2023-04-15T11:10:40.743Z,14.20
2023-04-15T11:13:12.101Z,13.60
2023-04-15T11:15:47.150Z,21.10
2023-04-15T11:18:17.290Z,19.90
2023-04-15T11:20:48.397Z,17.10
2023-04-15T11:23:27.917Z,20.40
2023-04-15T11:26:00.202Z,15.90
2023-04-15T11:28:30.558Z,16.10
2023-04-15T11:31:06.374Z,12.50
2023-04-15T11:33:34.780Z,21.40
2023-04-15T11:36:04.442Z,19.20
2023-04-15T11:38:34.835Z,15.20
2023-04-15T11:41:04.164Z,16.50
2023-04-15T11:43:35.544Z,17.80
2023-04-15T11:46:04.881Z,10.70
2023-04-15T11:48:35.572Z,18.50
2023-04-15T11:51:07.469Z,13.90
2023-04-15T11:53:49.646Z,9.70
2023-04-15T11:56:22.224Z,5.30
2023-04-15T11:58:57.328Z,14.60
2023-04-15T12:01:52.727Z,3.00
2023-04-15T12:04:25.454Z,29.60
2023-04-15T12:06:54.377Z,19.80
2023-04-15T12:09:23.144Z,44.60
2023-04-15T12:11:55.717Z,19.60
2023-04-15T12:14:30.070Z,18.30
2023-04-15T12:17:03.260Z,18.40
2023-04-15T12:19:36.281Z,20.50
2023-04-15T12:22:08.995Z,11.90
2023-04-15T12:24:38.304Z,16.70
2023-04-15T12:27:08.672Z,20.80
2023-04-15T12:29:39.438Z,24.50
2023-04-15T12:32:10.548Z,20.40
2023-04-15T12:34:41.070Z,14.70
2023-04-15T12:37:12.008Z,14.80
2023-04-15T12:39:42.918Z,18.80
2023-04-15T12:42:12.256Z,11.90
2023-04-15T12:44:41.120Z,13.20
2023-04-15T12:47:11.031Z,17.80
2023-04-15T12:49:39.799Z,14.40
2023-04-15T12:52:08.684Z,16.60
2023-04-15T12:54:40.108Z,17.30
2023-04-15T12:57:08.315Z,17.30
2023-04-15T12:59:36.764Z,34.80
2023-04-15T13:02:05.672Z,14.20
2023-04-15T13:04:35.224Z,15.50
2023-04-15T13:07:03.523Z,13.70
2023-04-15T13:09:34.333Z,18.20
2023-04-15T13:12:04.177Z,9.20
2023-04-15T13:14:32.447Z,15.60
2023-04-15T13:17:00.943Z,16.10
2023-04-15T13:19:29.184Z,16.10
2023-04-15T13:21:57.460Z,17.70
2023-04-15T13:24:26.273Z,18.70
2023-04-15T13:26:55.246Z,19.00
2023-04-15T13:29:23.525Z,10.90
2023-04-15T13:31:52.089Z,21.40
2023-04-15T13:34:21.093Z,14.40
2023-04-15T13:36:49.895Z,11.40
2023-04-15T13:39:18.183Z,12.20
2023-04-15T13:41:47.586Z,12.50
2023-04-15T13:44:15.968Z,19.40
2023-04-15T13:46:44.226Z,14.80
2023-04-15T13:49:12.503Z,9.60
2023-04-15T13:51:40.956Z,11.50
2023-04-15T13:54:10.848Z,11.30
2023-04-15T13:56:39.151Z,19.00
2023-04-15T13:59:08.889Z,16.70
2023-04-15T14:01:37.302Z,14.90
2023-04-15T14:04:06.939Z,12.70
2023-04-15T14:06:35.724Z,12.00
2023-04-15T14:09:04.333Z,18.20
2023-04-15T14:11:35.497Z,20.50
2023-04-15T14:14:04.234Z,11.20
2023-04-15T14:16:33.844Z,11.10
2023-04-15T14:19:03.222Z,9.40
2023-04-15T14:21:32.795Z,13.40
2023-04-15T14:24:01.050Z,21.70
2023-04-15T14:26:29.313Z,11.60
2023-04-15T14:28:57.538Z,18.40
2023-04-15T14:31:26.113Z,12.10
2023-04-15T14:33:54.476Z,12.40
2023-04-15T14:36:22.697Z,13.60
2023-04-15T14:38:53.199Z,14.40
2023-04-15T14:41:23.797Z,11.70
2023-04-15T14:43:52.011Z,11.80
2023-04-15T14:46:20.922Z,14.80
2023-04-15T14:48:49.898Z,12.90
2023-04-15T14:51:18.313Z,11.50
2023-04-15T14:53:46.621Z,17.90
2023-04-15T14:56:14.981Z,15.20
2023-04-15T14:58:44.363Z,15.20
2023-04-15T15:01:12.845Z,13.20
2023-04-15T15:03:42.321Z,9.60
2023-04-15T15:06:11.199Z,13.70
2023-04-15T15:08:39.470Z,10.90
2023-04-15T15:11:07.735Z,13.00
2023-04-15T15:13:35.978Z,13.00
2023-04-15T15:16:04.544Z,12.60
2023-04-15T15:18:32.849Z,15.20
2023-04-15T15:21:01.434Z,11.40
2023-04-15T15:23:29.656Z,13.30
2023-04-15T15:25:59.193Z,19.90
2023-04-15T15:28:27.530Z,7.70
2023-04-15T15:30:55.968Z,13.10
2023-04-15T15:33:25.584Z,12.00
2023-04-15T15:35:54.833Z,15.70
2023-04-15T15:38:23.644Z,12.40
2023-04-15T15:40:52.355Z,9.20
2023-04-15T15:43:20.818Z,9.10
2023-04-15T15:45:51.868Z,10.60
2023-04-15T15:48:21.181Z,14.00
2023-04-15T15:50:49.380Z,6.70
2023-04-15T15:53:21.013Z,12.00
2023-04-15T15:55:49.416Z,9.70
2023-04-15T15:58:17.771Z,14.70
2023-04-15T16:00:46.192Z,10.80
2023-04-15T16:03:17.247Z,10.00
2023-04-15T16:05:47.286Z,9.30
2023-04-15T16:08:16.650Z,9.90
2023-04-15T16:10:46.002Z,9.20
2023-04-15T16:13:19.763Z,12.40
2023-04-15T16:15:48.362Z,15.10
2023-04-15T16:18:17.628Z,9.00
2023-04-15T16:20:46.048Z,8.80
2023-04-15T16:23:18.897Z,8.80
2023-04-15T16:25:50.000Z,12.90
2023-04-15T16:28:26.422Z,12.40
2023-04-15T16:30:57.385Z,9.70
2023-04-15T16:33:25.950Z,10.40
2023-04-15T16:35:56.748Z,7.80
2023-04-15T16:38:30.246Z,15.00
2023-04-15T16:41:01.230Z,15.10
2023-04-15T16:43:29.987Z,9.30
2023-04-15T16:45:58.393Z,12.30
2023-04-15T16:48:28.317Z,14.20
2023-04-15T16:50:57.543Z,12.90
2023-04-15T16:53:26.429Z,12.80
2023-04-15T16:55:54.676Z,10.70
2023-04-15T16:58:23.070Z,12.30
2023-04-15T17:00:52.849Z,9.80
2023-04-15T17:03:22.511Z,11.80
2023-04-15T17:05:51.202Z,10.30
2023-04-15T17:08:19.444Z,16.60
2023-04-15T17:10:47.733Z,11.10
2023-04-15T17:13:16.215Z,8.80
2023-04-15T17:15:44.432Z,11.80
2023-04-15T17:18:13.249Z,11.30
2023-04-15T17:20:43.857Z,7.60
2023-04-15T17:23:12.089Z,14.90
2023-04-15T17:25:40.463Z,10.40
2023-04-15T17:28:09.320Z,15.00
2023-04-15T17:30:37.986Z,9.00
2023-04-15T17:33:56.007Z,10.10
2023-04-15T17:35:56.160Z,24.30
2023-04-15T17:38:24.460Z,16.40
2023-04-15T17:40:52.761Z,13.30
2023-04-15T17:43:21.248Z,12.40
2023-04-15T17:45:49.526Z,17.40
2023-04-15T17:48:21.315Z,14.80
2023-04-15T17:50:52.535Z,14.30
2023-04-15T17:53:22.751Z,15.70
2023-04-15T17:55:53.952Z,11.20
2023-04-15T17:58:22.362Z,13.40
2023-04-15T18:00:52.060Z,14.00
2023-04-15T18:03:20.660Z,13.40
2023-04-15T18:05:49.283Z,12.70
2023-04-15T18:08:17.983Z,20.30
2023-04-15T18:10:47.310Z,20.40
2023-04-15T18:13:15.820Z,13.20
2023-04-15T18:15:45.685Z,13.00
2023-04-15T18:18:16.388Z,17.10
2023-04-15T18:20:46.070Z,11.30
2023-04-15T18:23:22.105Z,9.00
2023-04-15T18:25:52.523Z,12.30
2023-04-15T18:28:25.746Z,15.40
2023-04-15T18:30:59.445Z,12.40
2023-04-15T18:33:28.507Z,12.80
2023-04-15T18:36:00.943Z,15.10
2023-04-15T18:38:29.464Z,18.20
2023-04-15T18:40:57.834Z,20.00
2023-04-15T18:43:26.036Z,12.60
2023-04-15T18:45:55.211Z,27.10
2023-04-15T18:48:23.877Z,14.20
2023-04-15T18:50:54.203Z,16.50
2023-04-15T18:53:25.464Z,17.40
2023-04-15T18:55:53.964Z,16.90
2023-04-15T18:58:25.027Z,14.50
2023-04-15T19:00:58.381Z,14.80
2023-04-15T19:03:29.345Z,21.70
2023-04-15T19:06:01.740Z,13.80
2023-04-15T19:08:31.542Z,20.30
2023-04-15T19:11:00.988Z,12.70
2023-04-15T19:13:33.571Z,10.10
2023-04-15T19:16:02.106Z,11.50
2023-04-15T19:18:30.649Z,9.20
2023-04-15T19:21:04.197Z,12.50
2023-04-15T19:23:36.099Z,12.90
2023-04-15T19:26:07.118Z,12.50
2023-04-15T19:28:36.454Z,9.40
2023-04-15T19:31:04.952Z,8.40
2023-04-15T19:33:35.598Z,10.90
2023-04-15T19:36:06.620Z,14.60
2023-04-15T19:38:38.848Z,25.60
2023-04-15T19:41:10.423Z,10.80
2023-04-15T19:43:38.883Z,22.10
2023-04-15T19:46:08.821Z,11.40
2023-04-15T19:48:40.154Z,13.30
2023-04-15T19:51:08.500Z,10.50
2023-04-15T19:53:36.685Z,11.50
2023-04-15T19:56:06.508Z,9.90
2023-04-15T19:58:46.681Z,11.40
2023-04-15T20:01:15.614Z,7.10
2023-04-15T20:03:48.059Z,8.70
2023-04-15T20:06:18.418Z,9.10
2023-04-15T20:08:46.947Z,6.70
2023-04-15T20:11:25.422Z,14.50
2023-04-15T20:14:13.899Z,8.50
2023-04-15T20:16:45.785Z,7.80
2023-04-15T20:19:14.045Z,6.60
2023-04-15T20:21:44.485Z,8.00
2023-04-15T20:24:14.318Z,9.10
2023-04-15T20:26:44.548Z,8.80
2023-04-15T20:29:14.168Z,10.40
2023-04-15T20:31:44.668Z,13.80
2023-04-15T20:34:12.929Z,11.60
2023-04-15T20:36:41.530Z,10.10
2023-04-15T20:39:09.683Z,8.80
2023-04-15T20:41:40.410Z,11.10
2023-04-15T20:44:09.487Z,10.60
2023-04-15T20:46:38.957Z,27.90
2023-04-15T20:49:07.925Z,17.60
2023-04-15T20:51:38.208Z,10.70
2023-04-15T20:54:12.365Z,34.40
2023-04-15T20:56:43.119Z,14.10
2023-04-15T20:59:15.915Z,9.00
2023-04-15T21:01:46.064Z,15.00
2023-04-15T21:04:14.552Z,16.80
2023-04-15T21:06:45.760Z,12.10
2023-04-15T21:09:20.531Z,15.00
2023-04-15T21:14:20.927Z,9.10
2023-04-15T21:16:49.317Z,12.50
2023-04-15T21:19:17.561Z,13.30
2023-04-15T21:21:51.798Z,12.80
2023-04-15T21:24:20.221Z,11.60
2023-04-15T21:26:49.822Z,10.80
2023-04-15T21:29:20.296Z,14.30
2023-04-15T21:31:49.802Z,14.60
2023-04-15T21:34:18.190Z,12.50
2023-04-15T21:36:48.650Z,11.40
2023-04-15T21:39:17.437Z,13.80
2023-04-15T21:41:46.005Z,8.00
2023-04-15T21:44:15.147Z,7.80
2023-04-15T21:46:48.958Z,12.60
2023-04-15T21:49:23.736Z,14.20
2023-04-15T21:52:01.385Z,9.40
2023-04-15T21:54:33.571Z,17.70
2023-04-15T21:57:02.058Z,15.50
2023-04-15T21:59:30.496Z,21.40
2023-04-15T22:02:00.762Z,15.80
2023-04-15T22:04:31.929Z,11.30
2023-04-15T22:07:02.904Z,11.30
2023-04-15T22:09:33.846Z,9.20
2023-04-15T22:12:04.208Z,8.70
2023-04-15T22:14:32.462Z,9.50
2023-04-15T22:17:02.094Z,10.30
2023-04-15T22:19:30.344Z,12.10
2023-04-15T22:21:59.127Z,11.10
2023-04-15T22:24:40.041Z,13.10
2023-04-15T22:27:11.494Z,11.90
2023-04-15T22:29:42.476Z,7.50
2023-04-15T22:32:12.315Z,11.10
2023-04-15T22:34:43.658Z,9.60
2023-04-15T22:37:13.139Z,13.80
2023-04-15T22:39:43.132Z,10.40
2023-04-15T22:42:14.559Z,12.50
2023-04-15T22:44:43.924Z,6.50
2023-04-15T22:47:13.111Z,8.90
2023-04-15T22:49:44.011Z,13.60
2023-04-15T22:52:23.447Z,11.30
2023-04-15T22:54:59.017Z,7.70
2023-04-15T22:57:29.056Z,8.80
2023-04-15T22:59:57.255Z,10.20
2023-04-15T23:02:27.706Z,10.60
2023-04-15T23:04:59.421Z,13.00
2023-04-15T23:07:30.474Z,11.50
2023-04-15T23:10:00.424Z,10.10
2023-04-15T23:12:31.545Z,16.20
2023-04-15T23:15:00.772Z,8.70
2023-04-15T23:17:29.294Z,12.60
2023-04-15T23:19:59.536Z,7.20
2023-04-15T23:22:28.158Z,9.90
2023-04-15T23:24:56.404Z,10.70
2023-04-15T23:27:24.721Z,9.20
2023-04-15T23:29:53.733Z,9.40
2023-04-15T23:32:22.104Z,10.90
2023-04-15T23:34:55.822Z,10.90
2023-04-15T23:40:07.663Z,8.30
2023-04-15T23:42:38.309Z,10.80
2023-04-15T23:45:08.746Z,14.10
2023-04-15T23:47:37.205Z,9.80
2023-04-15T23:50:07.483Z,16.40
2023-04-15T23:52:36.883Z,11.20
2023-04-15T23:55:12.070Z,7.90
2023-04-15T23:57:41.389Z,9.90
